createdAt,value
2023-04-02T00:00:10.768Z,97.60
2023-04-02T00:02:56.279Z,98.42
2023-04-02T00:05:28.967Z,99.67
2023-04-02T00:08:16.806Z,96.45
2023-04-02T00:10:49.390Z,95.26
2023-04-02T00:13:15.825Z,96.32
2023-04-02T00:15:55.667Z,93.40
2023-04-02T00:18:22.533Z,93.42
2023-04-02T00:20:54.921Z,93.61
2023-04-02T00:23:22.752Z,93.33
2023-04-02T00:25:49.131Z,94.45
2023-04-02T00:28:21.249Z,93.43
2023-04-02T00:30:53.862Z,91.45
2023-04-02T00:33:23.055Z,92.72
2023-04-02T00:35:52.496Z,90.83
2023-04-02T00:38:28.306Z,91.81
2023-04-02T00:40:57.164Z,88.73
2023-04-02T00:43:26.111Z,91.23
2023-04-02T00:45:57.395Z,91.70
2023-04-02T00:48:31.639Z,90.53
2023-04-02T00:51:23.713Z,89.57
2023-04-02T00:53:54.101Z,91.75
2023-04-02T00:56:36.322Z,91.82
2023-04-02T00:59:03.078Z,90.36
2023-04-02T01:01:35.849Z,90.82
2023-04-02T01:04:04.436Z,92.32
2023-04-02T01:06:35.755Z,94.73
2023-04-02T01:09:24.837Z,93.64
2023-04-02T01:12:19.169Z,93.20
2023-04-02T01:15:12.305Z,95.12
2023-04-02T01:17:50.747Z,94.05
2023-04-02T01:20:54.191Z,93.51
2023-04-02T01:23:26.400Z,90.61
2023-04-02T01:26:11.388Z,93.13
2023-04-02T01:28:56.285Z,89.38
2023-04-02T01:31:23.818Z,90.10
2023-04-02T01:33:50.132Z,90.92
2023-04-02T01:36:27.998Z,88.36
2023-04-02T01:39:10.903Z,89.83
2023-04-02T01:41:49.195Z,91.00
2023-04-02T01:44:23.983Z,91.48
2023-04-02T01:46:50.580Z,92.21
2023-04-02T01:49:22.216Z,92.85
2023-04-02T01:51:54.765Z,93.80
2023-04-02T01:54:22.443Z,92.45
2023-04-02T01:56:51.620Z,90.36
2023-04-02T01:59:21.095Z,89.80
2023-04-02T02:02:00.617Z,88.24
2023-04-02T02:04:27.099Z,90.04
2023-04-02T02:06:53.529Z,90.88
2023-04-02T02:09:24.218Z,90.25
2023-04-02T02:11:51.213Z,91.41
2023-04-02T02:14:26.908Z,90.66
2023-04-02T02:16:59.781Z,91.84
2023-04-02T02:19:32.006Z,90.65
2023-04-02T02:22:11.156Z,87.57
2023-04-02T02:24:38.548Z,89.05
2023-04-02T02:27:22.941Z,89.71
2023-04-02T02:29:58.632Z,88.85
2023-04-02T02:32:30.566Z,90.29
2023-04-02T02:35:43.308Z,88.12
2023-04-02T02:38:29.370Z,88.43
2023-04-02T02:41:01.257Z,90.51
2023-04-02T02:43:28.285Z,88.58
2023-04-02T02:45:57.507Z,88.09
2023-04-02T02:48:34.132Z,88.78
2023-04-02T02:51:04.255Z,89.65
2023-04-02T02:53:30.674Z,90.16
2023-04-02T02:56:01.007Z,89.10
2023-04-02T02:58:31.791Z,89.78
2023-04-02T03:00:59.356Z,90.25
2023-04-02T03:03:32.388Z,91.85
2023-04-02T03:06:05.724Z,90.23
2023-04-02T03:08:41.692Z,89.22
2023-04-02T03:11:26.729Z,89.43
2023-04-02T03:13:58.356Z,90.62
2023-04-02T03:16:34.387Z,90.96
2023-04-02T03:19:15.724Z,87.54
2023-04-02T03:21:51.126Z,86.33
2023-04-02T03:24:23.587Z,87.96
2023-04-02T03:26:56.489Z,88.96
2023-04-02T03:29:26.807Z,89.10
2023-04-02T03:32:39.498Z,87.91
2023-04-02T03:35:30.594Z,89.68
2023-04-02T03:38:19.501Z,90.34
2023-04-02T03:41:10.198Z,89.58
2023-04-02T03:43:42.641Z,89.25
2023-04-02T03:46:22.400Z,88.28
2023-04-02T03:48:54.800Z,89.46
2023-04-02T03:51:30.439Z,90.17
2023-04-02T03:53:56.970Z,89.78
2023-04-02T03:56:31.141Z,87.69
2023-04-02T03:59:06.029Z,86.61
2023-04-02T04:01:37.862Z,88.35
2023-04-02T04:04:12.546Z,88.07
2023-04-02T04:06:43.166Z,86.13
2023-04-02T04:09:39.021Z,87.21
2023-04-02T04:12:09.504Z,87.72
2023-04-02T04:14:41.903Z,87.31
2023-04-02T04:17:09.056Z,87.35
2023-04-02T04:19:57.770Z,88.04
2023-04-02T04:22:26.617Z,87.70
2023-04-02T04:24:52.928Z,87.21
2023-04-02T04:27:36.905Z,87.24
2023-04-02T04:30:13.554Z,88.64
2023-04-02T04:32:48.081Z,87.69
2023-04-02T04:35:37.170Z,85.87
2023-04-02T04:38:10.608Z,87.91
2023-04-02T04:40:44.149Z,89.12
2023-04-02T04:43:19.151Z,86.16
2023-04-02T04:45:56.062Z,86.65
2023-04-02T04:48:39.178Z,86.47
2023-04-02T04:51:10.173Z,87.73
2023-04-02T04:53:46.996Z,87.53
2023-04-02T04:56:19.518Z,85.80
2023-04-02T04:58:53.937Z,85.64
2023-04-02T05:01:29.915Z,84.62
2023-04-02T05:04:21.808Z,85.83
2023-04-02T05:07:07.280Z,87.59
2023-04-02T05:09:59.268Z,87.76
2023-04-02T05:12:28.549Z,87.57
2023-04-02T05:15:01.233Z,85.37
2023-04-02T05:17:43.004Z,86.41
2023-04-02T05:20:20.245Z,85.58
2023-04-02T05:23:29.527Z,86.66
2023-04-02T05:26:06.809Z,87.25
2023-04-02T05:28:40.795Z,86.66
2023-04-02T05:31:12.510Z,85.75
2023-04-02T05:33:39.832Z,88.28
2023-04-02T05:36:19.972Z,87.98
2023-04-02T05:38:48.458Z,90.18
2023-04-02T05:41:26.505Z,87.78
2023-04-02T05:44:05.457Z,87.82
2023-04-02T05:46:36.470Z,88.95
2023-04-02T05:49:06.921Z,90.18
2023-04-02T05:51:45.701Z,90.22
2023-04-02T05:54:25.621Z,90.02
2023-04-02T05:56:57.832Z,88.25
2023-04-02T05:59:31.655Z,85.36
2023-04-02T06:02:14.161Z,85.09
2023-04-02T06:04:59.026Z,86.28
2023-04-02T06:07:41.224Z,86.22
2023-04-02T06:10:33.697Z,86.23
2023-04-02T06:13:15.293Z,86.11
2023-04-02T06:15:41.850Z,85.86
2023-04-02T06:18:19.050Z,85.48
2023-04-02T06:20:46.163Z,82.89
2023-04-02T06:23:19.702Z,83.45
2023-04-02T06:25:55.342Z,84.53
2023-04-02T06:28:29.233Z,86.36
2023-04-02T06:31:00.967Z,87.09
2023-04-02T06:33:27.311Z,86.09
2023-04-02T06:35:55.356Z,85.81
2023-04-02T06:38:29.448Z,84.69
2023-04-02T06:41:04.483Z,83.29
2023-04-02T06:43:36.636Z,81.46
2023-04-02T06:46:11.866Z,81.33
2023-04-02T06:48:41.731Z,82.30
2023-04-02T06:51:12.460Z,83.33
2023-04-02T06:53:42.947Z,84.29
2023-04-02T06:56:27.290Z,83.05
2023-04-02T06:58:53.928Z,83.87
2023-04-02T07:01:25.321Z,83.24
2023-04-02T07:03:51.919Z,82.76
2023-04-02T07:06:21.275Z,82.36
2023-04-02T07:08:48.421Z,84.00
2023-04-02T07:11:19.434Z,83.32
2023-04-02T07:13:50.203Z,83.40
2023-04-02T07:16:20.517Z,83.00
2023-04-02T07:18:47.392Z,84.00
2023-04-02T07:21:14.035Z,83.83
2023-04-02T07:23:41.006Z,83.90
2023-04-02T07:26:12.786Z,84.51
2023-04-02T07:28:39.123Z,85.25
2023-04-02T07:31:15.981Z,83.78
2023-04-02T07:33:42.309Z,82.73
2023-04-02T07:36:13.511Z,81.62
2023-04-02T07:38:39.978Z,81.79
2023-04-02T07:41:07.335Z,83.64
2023-04-02T07:43:33.716Z,84.17
2023-04-02T07:46:00.018Z,80.68
2023-04-02T07:48:26.538Z,82.80
2023-04-02T07:50:53.083Z,79.46
2023-04-02T07:53:45.737Z,81.32
2023-04-02T07:56:14.876Z,81.93
2023-04-02T07:58:41.190Z,82.82
2023-04-02T08:01:15.700Z,80.94
2023-04-02T08:03:42.144Z,81.85
2023-04-02T08:06:08.608Z,80.51
2023-04-02T08:08:34.951Z,83.36
2023-04-02T08:11:01.257Z,82.82
2023-04-02T08:13:27.630Z,82.74
2023-04-02T08:15:54.001Z,85.33
2023-04-02T08:18:22.663Z,84.25
2023-04-02T08:20:49.371Z,85.42
2023-04-02T08:23:16.627Z,82.21
2023-04-02T08:25:44.154Z,84.42
2023-04-02T08:28:10.456Z,87.59
2023-04-02T08:30:36.788Z,86.32
2023-04-02T08:33:03.859Z,85.84
2023-04-02T08:35:30.887Z,85.60
2023-04-02T08:37:57.469Z,87.14
2023-04-02T08:40:36.024Z,88.00
2023-04-02T08:43:26.752Z,87.26
2023-04-02T08:46:10.248Z,86.89
2023-04-02T08:48:42.454Z,85.77
2023-04-02T08:51:21.801Z,83.43
2023-04-02T08:53:48.275Z,84.12
2023-04-02T08:56:20.442Z,84.65
2023-04-02T08:58:50.938Z,86.10
2023-04-02T09:01:36.454Z,87.65
2023-04-02T09:04:06.821Z,86.92
2023-04-02T09:06:33.985Z,88.34
2023-04-02T09:09:01.035Z,85.71
2023-04-02T09:11:52.074Z,84.75
2023-04-02T09:14:42.608Z,84.17
2023-04-02T09:17:19.128Z,84.10
2023-04-02T09:19:54.894Z,82.17
2023-04-02T09:22:27.250Z,84.79
2023-04-02T09:24:59.611Z,85.89
2023-04-02T09:27:30.012Z,85.87
2023-04-02T09:30:14.613Z,83.01
2023-04-02T09:32:54.443Z,83.16
2023-04-02T09:35:27.062Z,85.02
2023-04-02T09:38:08.935Z,87.36
2023-04-02T09:40:46.551Z,86.33
2023-04-02T09:43:16.261Z,86.33
2023-04-02T09:45:44.911Z,86.95
2023-04-02T09:48:26.893Z,82.23
2023-04-02T09:51:06.874Z,82.58
2023-04-02T09:53:36.699Z,83.90
2023-04-02T09:56:23.949Z,83.60
2023-04-02T09:59:15.261Z,85.69
2023-04-02T10:01:44.366Z,82.70
2023-04-02T10:04:41.682Z,82.86
2023-04-02T10:07:32.714Z,82.16
2023-04-02T10:10:18.121Z,81.79
2023-04-02T10:12:48.567Z,80.26
2023-04-02T10:15:20.754Z,82.62
2023-04-02T10:17:55.150Z,82.34
2023-04-02T10:20:25.632Z,82.51
2023-04-02T10:22:52.007Z,82.37
2023-04-02T10:25:24.678Z,82.65
2023-04-02T10:28:08.852Z,81.58
2023-04-02T10:30:53.472Z,81.00
2023-04-02T10:33:37.258Z,78.68
2023-04-02T10:36:32.971Z,79.14
2023-04-02T10:39:15.921Z,79.36
2023-04-02T10:41:52.184Z,80.04
2023-04-02T10:44:47.523Z,77.96
2023-04-02T10:47:32.604Z,80.09
2023-04-02T10:50:27.994Z,76.54
2023-04-02T10:53:14.558Z,75.59
2023-04-02T10:55:45.421Z,76.29
2023-04-02T10:58:29.956Z,77.30
2023-04-02T11:01:15.455Z,77.18
2023-04-02T11:03:48.368Z,76.52
2023-04-02T11:06:25.847Z,76.69
2023-04-02T11:08:58.325Z,77.96
2023-04-02T11:11:30.535Z,77.19
2023-04-02T11:14:03.075Z,77.39
2023-04-02T11:16:29.773Z,79.07
2023-04-02T11:19:21.670Z,79.06
2023-04-02T11:21:58.515Z,78.50
2023-04-02T11:24:29.116Z,74.38
2023-04-02T11:27:04.783Z,75.50
2023-04-02T11:29:33.405Z,76.72
2023-04-02T11:32:21.864Z,77.10
2023-04-02T11:34:56.431Z,78.45
2023-04-02T11:37:40.796Z,75.28
2023-04-02T11:40:44.975Z,75.17
2023-04-02T11:43:32.976Z,73.80
2023-04-02T11:46:03.565Z,75.08
2023-04-02T11:48:34.581Z,73.93
2023-04-02T11:51:00.991Z,74.17
2023-04-02T11:53:33.157Z,75.37
2023-04-02T11:56:08.519Z,74.60
2023-04-02T11:59:07.802Z,73.22
2023-04-02T12:02:04.512Z,71.82
2023-04-02T12:04:45.892Z,73.78
2023-04-02T12:07:30.081Z,74.80
2023-04-02T12:10:00.701Z,75.18
2023-04-02T12:12:32.797Z,74.00
2023-04-02T12:15:00.576Z,75.11
2023-04-02T12:17:38.714Z,74.93
2023-04-02T12:20:07.851Z,72.35
2023-04-02T12:22:38.026Z,71.86
2023-04-02T12:25:18.311Z,72.84
2023-04-02T12:27:44.715Z,73.90
2023-04-02T12:30:19.253Z,73.13
2023-04-02T12:32:45.884Z,71.53
2023-04-02T12:35:27.964Z,74.00
2023-04-02T12:37:54.457Z,74.81
2023-04-02T12:40:21.300Z,75.80
2023-04-02T12:42:47.656Z,75.45
2023-04-02T12:45:22.892Z,75.33
2023-04-02T12:47:49.248Z,73.48
2023-04-02T12:50:17.075Z,72.95
2023-04-02T12:52:49.282Z,72.71
2023-04-02T12:55:20.075Z,70.89
2023-04-02T12:57:46.446Z,72.13
2023-04-02T13:00:22.061Z,71.53
2023-04-02T13:03:12.805Z,74.45
2023-04-02T13:05:48.101Z,71.64
2023-04-02T13:08:41.544Z,72.60
2023-04-02T13:11:08.296Z,72.09
2023-04-02T13:13:37.822Z,70.33
2023-04-02T13:16:24.872Z,71.63
2023-04-02T13:18:51.353Z,69.57
2023-04-02T13:21:20.691Z,70.31
2023-04-02T13:23:47.478Z,71.42
2023-04-02T13:26:21.157Z,72.00
2023-04-02T13:28:56.634Z,71.13
2023-04-02T13:31:23.011Z,70.23
2023-04-02T13:33:49.434Z,68.44
2023-04-02T13:36:15.808Z,69.41
2023-04-02T13:38:42.420Z,71.41
2023-04-02T13:41:25.210Z,73.19
2023-04-02T13:43:53.058Z,72.90
2023-04-02T13:46:25.250Z,72.34
2023-04-02T13:48:53.340Z,70.96
2023-04-02T13:51:22.741Z,71.44
2023-04-02T13:53:55.652Z,72.46
2023-04-02T13:56:22.102Z,69.17
2023-04-02T13:58:48.607Z,69.49
2023-04-02T14:01:15.089Z,70.48
2023-04-02T14:03:41.932Z,69.53
2023-04-02T14:06:29.748Z,69.40
2023-04-02T14:09:21.990Z,69.48
2023-04-02T14:12:10.757Z,70.36
2023-04-02T14:15:13.552Z,71.18
2023-04-02T14:18:04.562Z,71.19
2023-04-02T14:20:44.554Z,68.22
2023-04-02T14:23:29.508Z,69.16
2023-04-02T14:26:25.610Z,71.41
2023-04-02T14:28:54.691Z,70.68
2023-04-02T14:31:36.167Z,72.64
2023-04-02T14:34:11.281Z,72.67
2023-04-02T14:37:04.529Z,72.42
2023-04-02T14:39:59.735Z,70.42
2023-04-02T14:42:41.813Z,71.88
2023-04-02T14:45:12.555Z,72.23
2023-04-02T14:47:45.221Z,71.79
2023-04-02T14:50:17.006Z,72.13
2023-04-02T14:52:47.378Z,71.59
2023-04-02T14:55:26.087Z,73.16
2023-04-02T14:57:54.749Z,73.59
2023-04-02T15:01:02.764Z,71.99
2023-04-02T15:03:34.787Z,70.32
2023-04-02T15:06:12.180Z,71.35
2023-04-02T15:08:48.283Z,73.14
2023-04-02T15:11:29.820Z,74.41
2023-04-02T15:14:31.535Z,72.37
2023-04-02T15:16:57.971Z,71.50
2023-04-02T15:19:24.496Z,73.38
2023-04-02T15:22:09.480Z,73.06
2023-04-02T15:25:04.344Z,75.09
2023-04-02T15:28:07.629Z,75.27
2023-04-02T15:30:43.496Z,73.65
2023-04-02T15:33:28.069Z,73.54
2023-04-02T15:36:13.096Z,72.13
2023-04-02T15:38:57.731Z,69.50
2023-04-02T15:41:33.163Z,70.03
2023-04-02T15:44:09.920Z,67.87
2023-04-02T15:46:54.323Z,69.29
2023-04-02T15:49:39.547Z,70.83
2023-04-02T15:52:31.704Z,70.72
2023-04-02T15:55:32.632Z,67.98
2023-04-02T15:58:21.753Z,65.09
2023-04-02T16:01:03.931Z,65.68
2023-04-02T16:03:49.273Z,66.60
2023-04-02T16:06:31.150Z,64.28
2023-04-02T16:09:22.365Z,66.66
2023-04-02T16:12:21.258Z,67.42
2023-04-02T16:14:49.482Z,68.02
2023-04-02T16:17:25.581Z,67.11
2023-04-02T16:20:00.603Z,67.50
2023-04-02T16:22:30.010Z,67.44
2023-04-02T16:25:10.953Z,65.90
2023-04-02T16:27:45.047Z,65.40
2023-04-02T16:30:28.801Z,66.70
2023-04-02T16:33:27.256Z,65.31
2023-04-02T16:35:58.152Z,64.39
2023-04-02T16:38:49.043Z,64.09
2023-04-02T16:41:25.474Z,63.40
2023-04-02T16:44:10.330Z,64.14
2023-04-02T16:46:51.685Z,63.61
2023-04-02T16:49:32.926Z,64.48
2023-04-02T16:52:33.703Z,61.95
2023-04-02T16:55:12.119Z,62.47
2023-04-02T16:57:56.337Z,63.66
2023-04-02T17:00:45.267Z,63.63
2023-04-02T17:03:26.695Z,64.35
2023-04-02T17:06:04.531Z,63.48
2023-04-02T17:08:38.935Z,63.54
2023-04-02T17:11:14.793Z,64.47
2023-04-02T17:13:48.403Z,64.32
2023-04-02T17:16:35.326Z,65.11
2023-04-02T17:19:01.849Z,66.50
2023-04-02T17:21:30.872Z,67.57
2023-04-02T17:24:02.392Z,67.83
2023-04-02T17:26:32.680Z,67.57
2023-04-02T17:29:04.214Z,68.37
2023-04-02T17:31:33.192Z,68.21
2023-04-02T17:34:00.217Z,67.86
2023-04-02T17:37:03.738Z,68.96
2023-04-02T17:39:40.368Z,69.07
2023-04-02T17:42:28.425Z,70.01
2023-04-02T17:45:17.548Z,69.13
2023-04-02T17:48:04.348Z,69.01
2023-04-02T17:50:44.773Z,68.97
2023-04-02T17:53:26.912Z,68.25
2023-04-02T17:56:19.767Z,69.12
2023-04-02T17:59:20.301Z,70.26
2023-04-02T18:01:54.076Z,71.66
2023-04-02T18:04:54.753Z,72.13
2023-04-02T18:07:29.578Z,72.80
2023-04-02T18:10:09.921Z,72.90
2023-04-02T18:12:57.321Z,72.96
2023-04-02T18:15:48.491Z,73.40
2023-04-02T18:18:30.427Z,73.43
2023-04-02T18:21:24.302Z,73.28
2023-04-02T18:24:28.417Z,73.01
2023-04-02T18:27:22.506Z,73.06
2023-04-02T18:30:14.652Z,73.47
2023-04-02T18:33:01.334Z,71.76
2023-04-02T18:35:36.812Z,72.08
2023-04-02T18:38:27.846Z,71.94
2023-04-02T18:41:19.488Z,71.51
2023-04-02T18:44:13.950Z,71.35
2023-04-02T18:46:54.084Z,72.47
2023-04-02T18:49:37.990Z,72.32
2023-04-02T18:52:12.486Z,73.61
2023-04-02T18:54:45.738Z,73.77
2023-04-02T18:57:21.048Z,73.32
2023-04-02T19:00:23.932Z,70.94
2023-04-02T19:03:00.231Z,71.71
2023-04-02T19:05:36.108Z,71.72
2023-04-02T19:08:13.733Z,72.45
2023-04-02T19:10:44.825Z,71.08
2023-04-02T19:13:16.284Z,72.00
2023-04-02T19:16:06.091Z,70.22
2023-04-02T19:18:51.681Z,71.28
2023-04-02T19:21:34.661Z,72.14
2023-04-02T19:24:40.172Z,71.23
2023-04-02T19:27:36.926Z,71.36
2023-04-02T19:30:27.117Z,71.49
2023-04-02T19:33:09.712Z,68.79
2023-04-02T19:35:45.652Z,69.26
2023-04-02T19:38:37.889Z,69.51
2023-04-02T19:41:25.265Z,67.35
2023-04-02T19:43:52.696Z,67.70
2023-04-02T19:46:19.056Z,68.26
2023-04-02T19:49:12.678Z,66.25
2023-04-02T19:51:38.967Z,67.24
2023-04-02T19:54:05.447Z,65.35
2023-04-02T19:56:31.999Z,66.61
2023-04-02T19:59:02.356Z,67.46
2023-04-02T20:01:31.546Z,67.51
2023-04-02T20:03:57.978Z,66.38
2023-04-02T20:06:24.339Z,67.40
2023-04-02T20:08:50.878Z,67.60
2023-04-02T20:11:17.213Z,66.82
2023-04-02T20:13:43.854Z,67.69
2023-04-02T20:16:10.434Z,68.06
2023-04-02T20:18:36.857Z,68.71
2023-04-02T20:21:05.440Z,69.68
2023-04-02T20:23:31.865Z,69.68
2023-04-02T20:25:58.363Z,69.58
2023-04-02T20:28:26.008Z,68.23
2023-04-02T20:30:52.939Z,67.92
2023-04-02T20:33:24.471Z,69.09
2023-04-02T20:35:52.850Z,70.17
2023-04-02T20:38:19.314Z,69.20
2023-04-02T20:40:45.748Z,69.66
2023-04-02T20:43:12.202Z,69.91
2023-04-02T20:45:38.491Z,70.09
2023-04-02T20:48:05.210Z,68.70
2023-04-02T20:50:31.607Z,69.70
2023-04-02T20:53:00.148Z,69.80
2023-04-02T20:55:26.570Z,68.49
2023-04-02T20:57:53.627Z,69.86
2023-04-02T21:00:20.164Z,70.69
2023-04-02T21:02:46.732Z,71.42
2023-04-02T21:05:13.202Z,71.86
2023-04-02T21:07:39.658Z,72.02
2023-04-02T21:10:07.470Z,70.64
2023-04-02T21:12:33.796Z,68.85
2023-04-02T21:15:02.230Z,68.58
2023-04-02T21:17:29.491Z,69.27
2023-04-02T21:19:56.121Z,69.87
2023-04-02T21:22:22.779Z,68.40
2023-04-02T21:24:49.207Z,69.49
2023-04-02T21:27:15.549Z,69.72
2023-04-02T21:29:41.942Z,70.56
2023-04-02T21:32:20.365Z,71.68
2023-04-02T21:34:47.461Z,70.64
2023-04-02T21:37:13.889Z,69.40
2023-04-02T21:39:40.454Z,69.70
2023-04-02T21:42:06.812Z,69.99
2023-04-02T21:44:33.277Z,70.65
2023-04-02T21:46:59.748Z,70.61
2023-04-02T21:49:26.196Z,69.96
2023-04-02T21:51:52.499Z,70.59
2023-04-02T21:54:19.547Z,68.60
2023-04-02T21:56:46.757Z,68.86
2023-04-02T21:59:15.867Z,71.05
2023-04-02T22:01:47.962Z,71.10
2023-04-02T22:04:17.444Z,71.27
2023-04-02T22:06:44.684Z,70.39
2023-04-02T22:09:15.419Z,70.26
2023-04-02T22:11:50.313Z,68.99
2023-04-02T22:14:17.091Z,66.77
2023-04-02T22:16:43.861Z,68.59
2023-04-02T22:19:13.719Z,69.17
2023-04-02T22:21:40.418Z,65.81
2023-04-02T22:24:09.356Z,66.37
2023-04-02T22:26:36.162Z,67.77
2023-04-02T22:29:02.683Z,68.75
2023-04-02T22:31:31.113Z,68.58
2023-04-02T22:33:58.011Z,69.30
2023-04-02T22:36:26.163Z,67.49
2023-04-02T22:38:53.031Z,67.50
2023-04-02T22:41:22.825Z,68.84
2023-04-02T22:43:49.404Z,69.46
2023-04-02T22:46:17.499Z,70.22
2023-04-02T22:48:44.688Z,69.75
2023-04-02T22:51:13.051Z,69.01
2023-04-02T22:53:39.697Z,69.17
2023-04-02T22:56:08.038Z,69.11
2023-04-02T22:58:35.323Z,70.31
2023-04-02T23:01:17.629Z,69.90
2023-04-02T23:03:44.020Z,69.83
2023-04-02T23:06:13.455Z,70.13
2023-04-02T23:08:41.436Z,70.36
2023-04-02T23:11:12.250Z,69.81
2023-04-02T23:13:39.830Z,70.02
2023-04-02T23:16:10.124Z,68.97
2023-04-02T23:18:38.040Z,68.33
2023-04-02T23:21:05.699Z,68.68
2023-04-02T23:23:33.089Z,70.24
2023-04-02T23:26:14.601Z,71.21
2023-04-02T23:28:41.705Z,70.79
2023-04-02T23:31:12.318Z,71.25
2023-04-02T23:33:39.320Z,71.26
2023-04-02T23:36:10.504Z,70.23
2023-04-02T23:38:36.993Z,71.06
2023-04-02T23:41:03.707Z,71.65
2023-04-02T23:43:30.106Z,72.48
2023-04-02T23:45:56.772Z,72.31
2023-04-02T23:48:23.391Z,73.01
2023-04-02T23:50:49.773Z,73.32
2023-04-02T23:53:16.073Z,73.43
2023-04-02T23:55:42.459Z,74.13
2023-04-02T23:58:08.777Z,73.99
